createdAt,value
2022-08-07T00:00:34.300Z,86.333333
2022-08-07T00:05:17.654Z,84.800000
2022-08-07T00:10:26.436Z,84.200000
2022-08-07T00:15:24.190Z,80.428571
2022-08-07T00:20:29.991Z,80.800000
2022-08-07T00:25:41.147Z,78.133333
2022-08-07T00:30:33.352Z,79.000000
2022-08-07T00:35:36.709Z,80.066667
2022-08-07T00:40:36.265Z,78.733333
2022-08-07T00:45:21.320Z,79.400000
2022-08-07T00:50:46.113Z,78.428571
2022-08-07T00:56:02.250Z,76.800000
2022-08-07T01:00:29.327Z,75.933333
2022-08-07T01:05:32.102Z,74.466667
2022-08-07T01:10:34.299Z,76.933333
2022-08-07T01:15:17.615Z,79.600000
2022-08-07T01:20:18.413Z,80.666667
2022-08-07T01:25:20.889Z,81.533333
2022-08-07T01:30:27.064Z,82.357143
2022-08-07T01:35:25.591Z,83.066667
2022-08-07T01:40:28.432Z,83.333333
2022-08-07T01:45:36.367Z,83.133333
2022-08-07T01:50:33.695Z,83.000000
2022-08-07T01:55:35.608Z,83.000000
2022-08-07T02:00:18.048Z,83.000000
2022-08-07T02:05:47.510Z,83.066667
2022-08-07T02:10:23.133Z,83.928571
2022-08-07T02:15:26.415Z,84.400000
2022-08-07T02:20:27.786Z,84.000000
2022-08-07T02:26:11.438Z,84.800000
2022-08-07T02:26:35.663Z,84.800000
2022-08-07T02:30:32.120Z,85.733333
2022-08-07T02:36:28.223Z,86.933333
2022-08-07T02:40:30.919Z,87.800000
2022-08-07T02:46:00.400Z,87.733333
2022-08-07T02:50:20.954Z,87.000000
2022-08-07T02:55:28.422Z,87.000000
2022-08-07T03:00:25.351Z,87.000000
2022-08-07T03:05:29.173Z,87.266667
2022-08-07T03:10:29.926Z,88.000000
2022-08-07T03:15:47.701Z,88.000000
2022-08-07T03:20:33.879Z,88.933333
2022-08-07T03:25:16.214Z,89.000000
2022-08-07T03:30:18.999Z,89.000000
2022-08-07T03:35:26.078Z,89.333333
2022-08-07T03:40:23.397Z,90.000000
2022-08-07T03:45:30.666Z,90.000000
2022-08-07T03:50:28.972Z,90.000000
2022-08-07T03:55:57.426Z,90.000000
2022-08-07T04:00:35.607Z,90.000000
2022-08-07T04:05:17.366Z,90.666667
2022-08-07T04:10:20.842Z,91.133333
2022-08-07T04:15:23.987Z,91.857143
2022-08-07T04:20:26.507Z,92.000000
2022-08-07T04:25:29.628Z,92.000000
2022-08-07T04:30:43.401Z,92.733333
2022-08-07T04:35:35.668Z,93.000000
2022-08-07T04:40:17.570Z,93.000000
2022-08-07T04:45:57.369Z,93.000000
2022-08-07T04:50:22.515Z,93.000000
2022-08-07T04:58:11.698Z,93.000000
2022-08-07T04:58:15.788Z,93.000000
2022-08-07T04:58:16.886Z,93.000000
2022-08-07T05:00:30.705Z,93.000000
2022-08-07T05:05:52.661Z,93.000000
2022-08-07T05:10:33.292Z,93.000000
2022-08-07T05:15:35.861Z,93.000000
2022-08-07T05:20:18.135Z,93.000000
2022-08-07T05:25:26.336Z,93.666667
2022-08-07T05:30:30.284Z,94.000000
2022-08-07T05:35:33.912Z,94.000000
2022-08-07T05:40:50.591Z,94.733333
2022-08-07T05:45:47.455Z,95.000000
2022-08-07T05:50:33.802Z,95.000000
2022-08-07T05:56:03.735Z,95.000000
2022-08-07T06:00:18.476Z,95.000000
2022-08-07T06:05:28.082Z,95.000000
2022-08-07T06:10:23.786Z,95.142857
2022-08-07T06:15:39.329Z,96.000000
2022-08-07T06:20:49.863Z,96.000000
2022-08-07T06:25:34.731Z,96.000000
2022-08-07T06:30:38.048Z,96.000000
2022-08-07T06:35:18.360Z,96.000000
2022-08-07T06:40:21.641Z,96.000000
2022-08-07T06:45:23.507Z,96.000000
2022-08-07T06:50:25.976Z,96.000000
2022-08-07T06:56:00.328Z,96.000000
2022-08-07T07:00:31.236Z,96.000000
2022-08-07T07:06:04.074Z,96.000000
2022-08-07T07:10:16.466Z,96.000000
2022-08-07T07:15:26.410Z,96.000000
2022-08-07T07:20:21.341Z,96.000000
2022-08-07T07:26:32.687Z,96.000000
2022-08-07T07:26:35.115Z,96.000000
2022-08-07T07:30:37.841Z,96.000000
2022-08-07T07:35:28.610Z,95.066667
2022-08-07T07:40:31.503Z,95.000000
2022-08-07T07:46:37.587Z,95.000000
2022-08-07T07:46:55.765Z,95.000000
2022-08-07T07:50:35.771Z,94.133333
2022-08-07T07:55:19.793Z,94.000000
2022-08-07T08:00:31.437Z,93.666667
2022-08-07T08:05:24.847Z,93.000000
2022-08-07T08:10:35.671Z,93.000000
2022-08-07T08:15:57.864Z,93.000000
2022-08-07T08:20:32.766Z,93.000000
2022-08-07T08:25:42.308Z,92.866667
2022-08-07T08:30:19.572Z,92.000000
2022-08-07T08:35:20.166Z,92.000000
2022-08-07T08:40:23.573Z,91.642857
2022-08-07T08:45:26.643Z,91.000000
2022-08-07T08:50:39.712Z,91.066667
2022-08-07T08:55:55.167Z,92.000000
2022-08-07T09:00:33.370Z,92.000000
2022-08-07T09:05:37.765Z,92.666667
2022-08-07T09:10:18.197Z,93.800000
2022-08-07T09:16:20.266Z,94.133333
2022-08-07T09:16:30.361Z,94.133333
2022-08-07T09:20:35.496Z,95.000000
2022-08-07T09:25:26.125Z,95.666667
2022-08-07T09:30:28.977Z,96.000000
2022-08-07T09:36:04.630Z,96.066667
2022-08-07T09:40:33.848Z,96.400000
2022-08-07T09:47:49.517Z,97.000000
2022-08-07T09:47:51.886Z,97.000000
2022-08-07T09:47:59.502Z,97.000000
2022-08-07T09:50:19.453Z,97.000000
2022-08-07T09:55:29.575Z,97.000000
2022-08-07T10:00:24.352Z,97.000000
2022-08-07T10:05:58.143Z,97.000000
2022-08-07T10:10:28.296Z,97.000000
2022-08-07T10:15:30.940Z,97.000000
2022-08-07T10:20:33.746Z,97.000000
2022-08-07T10:25:20.857Z,97.666667
2022-08-07T10:30:19.681Z,98.000000
2022-08-07T10:35:25.764Z,98.000000
2022-08-07T10:40:30.254Z,98.000000
2022-08-07T10:45:44.551Z,98.000000
2022-08-07T10:50:30.590Z,98.000000
2022-08-07T10:55:38.013Z,98.000000
2022-08-07T11:00:36.414Z,98.000000
2022-08-07T11:05:17.987Z,98.000000
2022-08-07T11:10:20.459Z,98.000000
2022-08-07T11:15:26.274Z,98.000000
2022-08-07T11:20:25.239Z,98.000000
2022-08-07T11:25:28.144Z,98.000000
2022-08-07T11:30:42.017Z,98.000000
2022-08-07T11:35:33.605Z,98.066667
2022-08-07T11:40:35.878Z,98.866667
2022-08-07T11:45:20.500Z,98.866667
2022-08-07T11:50:32.195Z,99.000000
2022-08-07T11:56:12.028Z,99.000000
2022-08-07T11:56:28.501Z,99.000000
2022-08-07T12:00:27.618Z,99.000000
2022-08-07T12:05:41.309Z,99.000000
2022-08-07T12:10:30.626Z,99.000000
2022-08-07T12:15:35.695Z,99.000000
2022-08-07T12:20:36.547Z,99.000000
2022-08-07T12:26:03.466Z,99.000000
2022-08-07T12:26:29.944Z,99.000000
2022-08-07T12:30:23.465Z,99.000000
2022-08-07T12:35:24.133Z,99.000000
2022-08-07T12:41:01.971Z,99.000000
2022-08-07T12:45:29.193Z,99.000000
2022-08-07T12:50:34.141Z,99.000000
2022-08-07T12:55:40.593Z,99.000000
2022-08-07T13:00:31.084Z,99.000000
2022-08-07T13:06:03.062Z,99.000000
2022-08-07T13:10:39.671Z,99.000000
2022-08-07T13:15:29.754Z,99.000000
2022-08-07T13:20:29.115Z,99.000000
2022-08-07T13:25:30.657Z,99.000000
2022-08-07T13:30:40.827Z,99.000000
2022-08-07T13:35:16.038Z,99.000000
2022-08-07T13:40:36.761Z,99.000000
2022-08-07T13:46:20.698Z,99.000000
2022-08-07T13:46:31.355Z,99.000000
2022-08-07T13:50:33.121Z,98.857143
2022-08-07T13:55:27.130Z,97.933333
2022-08-07T14:00:30.611Z,96.466667
2022-08-07T14:05:37.301Z,93.266667
2022-08-07T14:10:42.038Z,88.933333
2022-08-07T14:15:18.788Z,84.933333
2022-08-07T14:20:42.442Z,83.200000
2022-08-07T14:25:23.371Z,82.142857
2022-08-07T14:30:32.609Z,81.133333
2022-08-07T14:35:43.168Z,79.400000
2022-08-07T14:40:35.012Z,78.466667
2022-08-07T14:46:51.823Z,77.400000
2022-08-07T14:50:16.041Z,78.533333
2022-08-07T14:55:19.242Z,81.466667
2022-08-07T15:00:30.276Z,83.066667
2022-08-07T15:05:24.684Z,83.571429
2022-08-07T15:10:29.615Z,82.466667
2022-08-07T15:15:29.710Z,81.533333
2022-08-07T15:22:43.435Z,80.600000
2022-08-07T15:25:36.777Z,82.666667
2022-08-07T15:30:17.275Z,82.066667
2022-08-07T15:36:02.636Z,82.000000
2022-08-07T15:40:34.393Z,81.142857
2022-08-07T15:45:24.826Z,81.533333
2022-08-07T15:51:01.317Z,81.400000
2022-08-07T15:55:53.581Z,80.733333
2022-08-07T16:00:33.868Z,80.066667
2022-08-07T16:05:36.051Z,79.533333
2022-08-07T16:10:17.743Z,78.200000
2022-08-07T16:15:55.750Z,77.066667
2022-08-07T16:20:33.899Z,75.928571
2022-08-07T16:25:54.513Z,73.600000
2022-08-07T16:30:31.913Z,73.200000
2022-08-07T16:35:51.971Z,74.466667
2022-08-07T16:40:33.922Z,75.333333
2022-08-07T16:46:33.016Z,75.200000
2022-08-07T16:47:12.080Z,75.200000
2022-08-07T16:50:37.026Z,75.266667
2022-08-07T16:55:21.124Z,75.666667
2022-08-07T17:00:29.836Z,74.285714
2022-08-07T17:06:02.325Z,73.466667
2022-08-07T17:06:41.056Z,73.466667
2022-08-07T17:10:30.388Z,72.733333
2022-08-07T17:15:44.448Z,71.466667
2022-08-07T17:20:34.839Z,73.400000
2022-08-07T17:25:17.161Z,72.666667
2022-08-07T17:30:20.516Z,71.533333
2022-08-07T17:35:49.664Z,71.214286
2022-08-07T17:40:30.177Z,71.000000
2022-08-07T17:45:27.473Z,71.800000
2022-08-07T17:50:30.532Z,71.000000
2022-08-07T17:56:01.094Z,68.600000
2022-08-07T18:00:34.491Z,67.933333
2022-08-07T18:05:21.572Z,67.066667
2022-08-07T18:10:32.180Z,67.466667
2022-08-07T18:15:20.523Z,64.533333
2022-08-07T18:21:12.328Z,64.000000
2022-08-07T18:21:51.722Z,64.000000
2022-08-07T18:25:40.792Z,63.533333
2022-08-07T18:30:33.032Z,62.200000
2022-08-07T18:35:30.929Z,61.933333
2022-08-07T18:40:42.702Z,62.400000
2022-08-07T18:45:44.168Z,59.333333
2022-08-07T18:50:38.863Z,58.000000
2022-08-07T18:55:41.214Z,54.333333
2022-08-07T19:00:32.089Z,51.071429
2022-08-07T19:05:26.992Z,50.600000
2022-08-07T19:10:31.464Z,51.800000
2022-08-07T19:16:04.931Z,51.266667
2022-08-07T19:17:00.488Z,51.266667
2022-08-07T19:20:35.920Z,49.200000
2022-08-07T19:26:21.831Z,48.533333
2022-08-07T19:26:28.717Z,48.533333
2022-08-07T19:31:05.607Z,49.333333
2022-08-07T19:31:59.769Z,49.333333
2022-08-07T19:35:24.277Z,46.214286
2022-08-07T19:40:31.475Z,46.733333
2022-08-07T19:46:05.988Z,45.133333
2022-08-07T19:50:44.467Z,45.200000
2022-08-07T19:55:56.966Z,43.800000
2022-08-07T20:00:28.168Z,45.666667
2022-08-07T20:05:21.620Z,45.400000
2022-08-07T20:10:37.169Z,45.642857
2022-08-07T20:15:32.718Z,42.400000
2022-08-07T20:20:29.689Z,42.266667
2022-08-07T20:25:31.918Z,42.266667
2022-08-07T20:30:34.250Z,43.333333
2022-08-07T20:35:20.544Z,43.533333
2022-08-07T20:40:33.541Z,40.733333
2022-08-07T20:45:32.928Z,43.066667
2022-08-07T20:46:32.287Z,43.066667
2022-08-07T20:50:24.449Z,43.857143
2022-08-07T20:55:26.686Z,43.733333
2022-08-07T21:00:29.077Z,43.733333
2022-08-07T21:05:52.694Z,42.333333
2022-08-07T21:10:34.634Z,39.933333
2022-08-07T21:15:18.661Z,38.266667
2022-08-07T21:20:29.687Z,34.266667
2022-08-07T21:25:21.753Z,33.266667
2022-08-07T21:30:24.515Z,33.928571
2022-08-07T21:35:34.498Z,34.733333
2022-08-07T21:40:36.028Z,34.133333
2022-08-07T21:46:09.315Z,31.866667
2022-08-07T21:50:36.468Z,30.933333
2022-08-07T21:55:19.418Z,29.200000
2022-08-07T22:00:22.619Z,29.666667
2022-08-07T22:05:44.893Z,29.214286
2022-08-07T22:10:26.150Z,27.333333
2022-08-07T22:16:39.489Z,28.066667
2022-08-07T22:16:39.712Z,28.066667
2022-08-07T22:20:31.212Z,27.733333
2022-08-07T22:25:36.316Z,26.400000
2022-08-07T22:30:16.027Z,22.066667
2022-08-07T22:35:19.027Z,23.800000
2022-08-07T22:40:21.954Z,22.133333
2022-08-07T22:46:21.341Z,23.071429
2022-08-07T22:47:02.923Z,23.071429
2022-08-07T22:50:29.034Z,24.533333
2022-08-07T22:55:29.975Z,25.533333
2022-08-07T23:00:32.521Z,25.800000
2022-08-07T23:06:10.027Z,27.400000
2022-08-07T23:10:36.329Z,28.666667
2022-08-07T23:16:04.962Z,29.533333
2022-08-07T23:20:51.730Z,30.400000
2022-08-07T23:25:28.323Z,31.071429
2022-08-07T23:30:37.969Z,29.600000
2022-08-07T23:35:29.607Z,30.733333
2022-08-07T23:40:32.192Z,30.533333
2022-08-07T23:46:01.665Z,30.800000
2022-08-07T23:50:18.293Z,31.333333
2022-08-07T23:55:52.986Z,32.133333
